Time;durP1;ratioP1;P1;durP2;ratioP2;P2;SDS_P1;SDS_P2;PMS_P1;PMS_P2;Temp;Humidity;BMP_temperature;BMP_pressure;BME280_temperature;BME280_humidity;BME280_pressure;Samples;Min_cycle;Max_cycle;Signal;HPM_P1;HPM_P2
2022/05/04 00:00:22;;;;;;;0.00;0.00;;;;;;;12.68;51.13;102151.34;5069706;28;20047;-81
2022/05/04 00:02:48;;;;;;;0.10;0.10;;;;;;;12.69;50.90;102153.13;5068258;28;20036;-83
2022/05/04 00:05:15;;;;;;;0.05;0.05;;;;;;;12.61;51.03;102140.75;5071977;28;20039;-83
2022/05/04 00:07:41;;;;;;;0.00;0.00;;;;;;;12.67;51.04;102146.94;5071428;28;20047;-82
2022/05/04 00:10:08;;;;;;;0.10;0.10;;;;;;;12.65;50.78;102148.69;5071516;28;20032;-80
2022/05/04 00:12:35;;;;;;;0.00;0.00;;;;;;;12.66;51.12;102147.81;5068897;28;20036;-82
2022/05/04 00:15:01;;;;;;;0.00;0.00;;;;;;;12.62;50.68;102141.63;5068805;28;20032;-82
2022/05/04 00:17:27;;;;;;;0.10;0.10;;;;;;;12.58;50.93;102145.22;5069829;28;20036;-81
2022/05/04 00:19:54;;;;;;;0.10;0.10;;;;;;;12.59;50.64;102150.53;5070595;28;20412;-82
2022/05/04 00:22:21;;;;;;;0.00;0.00;;;;;;;12.54;51.05;102148.81;5070103;28;20029;-82
2022/05/04 00:24:48;;;;;;;0.00;0.00;;;;;;;12.53;51.27;102145.25;5067665;28;20083;-82
2022/05/04 00:27:15;;;;;;;0.00;0.00;;;;;;;12.56;50.97;102147.00;5069765;28;20569;-82
2022/05/04 00:29:43;;;;;;;0.10;0.10;;;;;;;12.58;50.78;102150.53;5069493;28;20064;-81
2022/05/04 00:32:11;;;;;;;0.00;0.00;;;;;;;12.58;51.26;102151.41;5066568;28;20541;-81
2022/05/04 00:34:38;;;;;;;0.30;0.30;;;;;;;12.54;51.17;102146.16;5072058;28;20086;-83
2022/05/04 00:37:05;;;;;;;0.00;0.00;;;;;;;12.54;50.81;102146.16;5069137;28;20040;-81
2022/05/04 00:39:31;;;;;;;0.00;0.00;;;;;;;12.50;50.64;102147.94;5070966;28;20040;-82
2022/05/04 00:42:18;;;;;;;0.10;0.10;;;;;;;12.61;50.46;102146.09;5067964;28;20028;-81
2022/05/04 00:44:46;;;;;;;0.00;0.00;;;;;;;12.52;50.03;102145.25;5071170;28;20033;-82
2022/05/04 00:47:13;;;;;;;0.10;0.10;;;;;;;12.47;49.90;102142.63;5069948;28;20086;-81
2022/05/04 00:49:41;;;;;;;0.10;0.10;;;;;;;12.52;50.01;102135.50;5072117;28;20044;-82
2022/05/04 00:52:09;;;;;;;0.00;0.00;;;;;;;12.49;50.17;102140.84;5067363;28;20028;-83
2022/05/04 00:54:36;;;;;;;0.10;0.10;;;;;;;12.48;50.12;102144.41;5070592;28;20035;-81
2022/05/04 00:57:04;;;;;;;0.00;0.00;;;;;;;12.49;50.23;102143.50;5069661;28;20033;-82
2022/05/04 00:59:31;;;;;;;0.00;0.00;;;;;;;12.44;50.12;102137.34;5069237;28;20032;-82
2022/05/04 01:01:58;;;;;;;0.10;0.10;;;;;;;12.44;50.04;102137.34;5070982;28;20040;-82
2022/05/04 01:04:25;;;;;;;0.00;0.00;;;;;;;12.46;50.23;102135.53;5070916;28;20103;-81
2022/05/04 01:06:52;;;;;;;0.15;0.15;;;;;;;12.45;49.96;102133.81;5065558;28;20043;-84
2022/05/04 01:09:18;;;;;;;0.00;0.00;;;;;;;12.46;49.77;102135.53;5066828;28;20159;-83
2022/05/04 01:11:46;;;;;;;3.13;1.20;;;;;;;12.48;49.76;102138.22;5070013;28;20085;-81
2022/05/04 01:14:13;;;;;;;0.00;0.00;;;;;;;12.51;49.81;102135.53;5068212;28;20145;-82
2022/05/04 01:16:42;;;;;;;0.00;0.00;;;;;;;12.49;49.57;102132.88;5071277;28;20041;-81
2022/05/04 01:19:09;;;;;;;0.00;0.00;;;;;;;12.48;49.58;102138.22;5070358;28;20024;-82
2022/05/04 01:21:35;;;;;;;0.00;0.00;;;;;;;12.43;48.87;102140.91;5068585;28;20125;-82
2022/05/04 01:24:03;;;;;;;0.20;0.20;;;;;;;12.47;49.91;102137.31;5070793;28;20459;-83
2022/05/04 01:26:29;;;;;;;0.10;0.10;;;;;;;12.45;49.72;102136.47;5070130;28;20032;-81
2022/05/04 01:28:55;;;;;;;0.57;0.57;;;;;;;12.42;48.96;102131.16;5070269;28;20024;-83
2022/05/04 01:31:22;;;;;;;0.00;0.00;;;;;;;12.44;49.32;102130.25;5065836;28;20033;-84
2022/05/04 01:33:48;;;;;;;0.98;0.98;;;;;;;12.45;49.28;102128.50;5070446;28;20085;-81
2022/05/04 01:36:14;;;;;;;0.22;0.20;;;;;;;12.45;49.20;102139.13;5070336;28;20043;-82
2022/05/04 01:38:41;;;;;;;0.00;0.00;;;;;;;12.45;49.34;102136.47;5069373;28;20086;-82
2022/05/04 01:42:02;;;;;;;0.10;0.10;;;;;;;12.42;49.20;102139.13;5068723;28;20044;-82
2022/05/04 01:43:53;;;;;;;0.10;0.10;;;;;;;12.40;49.06;102130.28;5065341;28;20479;-81
2022/05/04 01:46:19;;;;;;;0.00;0.00;;;;;;;12.36;48.87;102125.88;5068250;28;20056;-81
2022/05/04 01:48:45;;;;;;;0.10;0.10;;;;;;;12.36;48.87;102128.53;5068205;28;20066;-82
2022/05/04 01:51:11;;;;;;;0.00;0.00;;;;;;;12.30;49.56;102125.03;5071321;28;20029;-82
2022/05/04 01:53:38;;;;;;;0.00;0.00;;;;;;;12.29;50.23;102125.91;5073216;28;20036;-83
2022/05/04 01:56:07;;;;;;;0.10;0.10;;;;;;;12.25;49.45;102124.19;5070522;28;20503;-81
2022/05/04 01:58:34;;;;;;;0.00;0.00;;;;;;;12.16;49.43;102128.66;5072339;28;20089;-82
2022/05/04 02:01:01;;;;;;;0.08;0.08;;;;;;;12.16;49.55;102124.22;5072269;28;20047;-81
2022/05/04 02:03:28;;;;;;;0.00;0.00;;;;;;;12.11;48.96;102124.28;5072862;28;20074;-81
2022/05/04 02:05:55;;;;;;;0.00;0.00;;;;;;;12.08;49.73;102124.28;5072735;28;20037;-81
2022/05/04 02:08:21;;;;;;;0.10;0.10;;;;;;;12.07;49.55;102126.94;5073373;28;20075;-81
2022/05/04 02:10:48;;;;;;;0.00;0.00;;;;;;;12.05;50.06;102123.41;5072381;28;20415;-81
2022/05/04 02:13:14;;;;;;;0.00;0.00;;;;;;;12.03;49.91;102125.22;5073183;28;20029;-82
2022/05/04 02:15:40;;;;;;;0.00;0.00;;;;;;;12.00;50.08;102118.16;5071730;28;20475;-82
2022/05/04 02:18:06;;;;;;;0.10;0.10;;;;;;;11.94;51.01;102113.69;5071670;28;20488;-81
2022/05/04 02:20:32;;;;;;;0.10;0.10;;;;;;;11.85;52.09;102113.75;5072982;28;20403;-82
2022/05/04 02:22:58;;;;;;;0.05;0.05;;;;;;;11.80;51.61;102118.19;5071920;28;20024;-81
2022/05/04 02:25:24;;;;;;;0.10;0.10;;;;;;;11.70;52.03;102116.47;5072389;28;20047;-81
2022/05/04 02:27:51;;;;;;;0.00;0.00;;;;;;;11.58;52.66;102115.63;5073317;28;20028;-82
2022/05/04 02:30:17;;;;;;;0.03;0.03;;;;;;;11.48;52.82;102111.25;5070896;28;20024;-81
2022/05/04 02:32:43;;;;;;;0.00;0.00;;;;;;;11.35;53.32;102118.34;5072618;28;20369;-81
2022/05/04 02:37:55;;;;;;;0.10;0.10;;;;;;;11.10;54.09;102110.47;5069394;28;20032;-81
2022/05/04 02:40:23;;;;;;;0.08;0.08;;;;;;;10.99;54.34;102110.47;5073312;28;20075;-82
2022/05/04 02:42:49;;;;;;;0.60;0.43;;;;;;;10.92;53.73;102108.72;5070867;28;20119;-82
2022/05/04 02:45:15;;;;;;;0.10;0.10;;;;;;;10.87;53.89;102106.97;5071231;28;20491;-81
2022/05/04 02:47:41;;;;;;;0.10;0.10;;;;;;;10.81;54.81;102107.84;5072854;28;20499;-82
2022/05/04 02:50:08;;;;;;;0.10;0.10;;;;;;;10.77;54.88;102101.66;5073193;28;20103;-82
2022/05/04 02:52:34;;;;;;;0.10;0.10;;;;;;;10.73;54.07;102110.50;5069300;28;20182;-82
2022/05/04 02:55:00;;;;;;;0.00;0.00;;;;;;;10.69;54.31;102106.06;5072576;28;20032;-82
2022/05/04 02:57:26;;;;;;;0.70;0.40;;;;;;;10.65;55.57;102107.88;5071907;28;20124;-81
2022/05/04 02:59:52;;;;;;;0.17;0.17;;;;;;;10.61;54.60;102110.50;5069361;28;20407;-81
2022/05/04 03:02:33;;;;;;;0.10;0.10;;;;;;;10.57;55.47;102106.97;5070834;28;20024;-83
2022/05/04 03:05:04;;;;;;;0.00;0.00;;;;;;;10.55;54.93;102107.84;5070122;28;20020;-81
2022/05/04 03:07:31;;;;;;;0.10;0.10;;;;;;;10.47;56.07;102108.72;5073055;28;20500;-82
2022/05/04 03:09:58;;;;;;;0.13;0.13;;;;;;;10.41;56.34;102102.56;5071980;28;20028;-82
2022/05/04 03:12:25;;;;;;;0.10;0.10;;;;;;;10.38;55.34;102107.84;5068282;28;20039;-81
2022/05/04 03:14:51;;;;;;;0.10;0.10;;;;;;;10.32;56.82;102108.69;5071160;28;20032;-83
2022/05/04 03:17:18;;;;;;;0.10;0.10;;;;;;;10.27;56.15;102100.72;5069893;28;20043;-81
2022/05/04 03:19:45;;;;;;;0.10;0.10;;;;;;;10.24;56.37;102111.31;5071696;28;20051;-81
2022/05/04 03:22:11;;;;;;;0.05;0.05;;;;;;;10.20;55.98;102109.53;5072041;28;20515;-83
2022/05/04 03:24:39;;;;;;;0.10;0.10;;;;;;;10.16;57.05;102103.34;5070435;28;20028;-81
2022/05/04 03:27:06;;;;;;;0.10;0.10;;;;;;;10.11;57.71;102099.81;5070784;28;20090;-81
2022/05/04 03:29:32;;;;;;;0.00;0.00;;;;;;;10.07;57.47;102102.44;5071893;28;20032;-81
2022/05/04 03:31:58;;;;;;;0.10;0.10;;;;;;;10.03;56.63;102098.91;5071833;28;20655;-81
2022/05/04 03:34:25;;;;;;;0.10;0.10;;;;;;;10.02;57.22;102103.31;5071043;28;20539;-83
2022/05/04 03:36:52;;;;;;;0.10;0.10;;;;;;;10.00;56.21;102099.78;5070797;28;20028;-82
2022/05/04 03:39:18;;;;;;;0.10;0.10;;;;;;;9.98;56.87;102096.25;5072493;28;20066;-81
2022/05/04 03:41:44;;;;;;;0.10;0.10;;;;;;;9.95;57.23;102087.41;5070461;28;20039;-82
2022/05/04 03:44:11;;;;;;;0.10;0.10;;;;;;;9.92;56.79;102083.00;5069703;28;20458;-81
2022/05/04 03:46:43;;;;;;;0.10;0.10;;;;;;;9.94;57.11;102089.16;5070609;28;20028;-82
2022/05/04 03:49:10;;;;;;;0.10;0.10;;;;;;;9.88;57.26;102086.50;5070540;28;20554;-81
2022/05/04 03:51:36;;;;;;;0.10;0.10;;;;;;;9.84;56.64;102084.75;5070846;28;20067;-82
2022/05/04 03:54:03;;;;;;;0.10;0.10;;;;;;;9.82;56.74;102091.78;5071990;28;20478;-82
2022/05/04 03:56:29;;;;;;;0.10;0.10;;;;;;;9.79;57.42;102082.06;5070540;28;20066;-82
2022/05/04 03:58:55;;;;;;;0.10;0.10;;;;;;;9.78;57.34;102090.00;5071708;28;20396;-82
2022/05/04 04:01:21;;;;;;;0.10;0.10;;;;;;;9.76;56.99;102091.75;5068018;28;20043;-82
2022/05/04 04:03:48;;;;;;;0.10;0.10;;;;;;;9.74;56.79;102091.75;5069019;28;20059;-82
2022/05/04 04:06:15;;;;;;;0.10;0.10;;;;;;;9.74;57.46;102088.25;5069782;28;20119;-84
2022/05/04 04:08:41;;;;;;;0.10;0.10;;;;;;;9.71;56.79;102083.81;5069986;28;20051;-83
2022/05/04 04:11:08;;;;;;;0.10;0.10;;;;;;;9.68;57.53;102090.00;5069892;28;20033;-82
2022/05/04 04:13:34;;;;;;;0.10;0.10;;;;;;;9.65;57.37;102089.09;5070672;28;20021;-82
2022/05/04 04:16:00;;;;;;;0.10;0.10;;;;;;;9.63;57.08;102088.19;5069690;28;20029;-82
2022/05/04 04:18:27;;;;;;;0.10;0.10;;;;;;;9.62;56.96;102086.41;5067476;28;20454;-82
2022/05/04 04:23:41;;;;;;;0.03;0.03;;;;;;;9.62;57.49;102089.06;5070890;28;20390;-82
2022/05/04 04:26:09;;;;;;;0.10;0.10;;;;;;;9.60;57.65;102091.72;5069055;28;20032;-83
2022/05/04 04:28:38;;;;;;;0.10;0.10;;;;;;;9.59;57.40;102076.72;5070079;28;20153;-81
2022/05/04 04:31:05;;;;;;;0.10;0.10;;;;;;;9.60;56.94;102086.41;5070518;28;20042;-83
2022/05/04 04:33:31;;;;;;;0.15;0.15;;;;;;;9.58;57.70;102088.16;5068743;28;20050;-81
2022/05/04 04:35:59;;;;;;;0.38;0.38;;;;;;;9.59;57.48;102089.06;5067576;28;20158;-81
2022/05/04 04:38:25;;;;;;;0.03;0.03;;;;;;;9.59;57.17;102087.28;5069740;28;20071;-82
2022/05/04 04:40:52;;;;;;;0.13;0.13;;;;;;;9.61;56.95;102088.19;5070902;28;20105;-81
2022/05/04 04:43:18;;;;;;;0.10;0.10;;;;;;;9.61;58.06;102092.59;5071769;28;20483;-81
2022/05/04 04:45:45;;;;;;;0.10;0.10;;;;;;;9.62;58.18;102089.06;5066875;28;20518;-81
2022/05/04 04:48:12;;;;;;;0.15;0.15;;;;;;;9.62;58.07;102089.97;5071655;28;20024;-82
2022/05/04 04:50:38;;;;;;;0.10;0.10;;;;;;;9.63;57.65;102094.38;5068925;28;20036;-82
2022/05/04 04:53:04;;;;;;;0.00;0.00;;;;;;;9.62;57.85;102092.63;5068876;28;20060;-82
2022/05/04 04:55:30;;;;;;;0.00;0.00;;;;;;;9.65;57.86;102094.38;5067654;28;20039;-81
2022/05/04 04:57:57;;;;;;;0.10;0.10;;;;;;;9.67;57.70;102104.09;5069205;28;20028;-82
2022/05/04 05:00:24;;;;;;;0.10;0.10;;;;;;;9.69;57.63;102102.34;5065807;28;20137;-82
2022/05/04 05:02:50;;;;;;;0.05;0.05;;;;;;;9.69;57.61;102102.34;5068265;28;20031;-83
2022/05/04 05:05:17;;;;;;;0.10;0.10;;;;;;;9.74;58.39;102104.13;5071039;28;20052;-82
2022/05/04 05:07:44;;;;;;;0.10;0.10;;;;;;;9.75;58.01;102101.47;5068422;28;20109;-82
2022/05/04 05:10:10;;;;;;;0.08;0.08;;;;;;;9.74;57.24;102104.13;5072136;28;20119;-82
2022/05/04 05:12:36;;;;;;;0.10;0.10;;;;;;;9.75;58.26;102100.59;5068120;28;20036;-82
2022/05/04 05:17:48;;;;;;;0.50;0.50;;;;;;;9.76;57.47;102103.25;5068561;28;20036;-81
2022/05/04 05:20:14;;;;;;;0.00;0.00;;;;;;;9.77;57.36;102098.81;5070114;28;20044;-81
2022/05/04 05:22:40;;;;;;;0.00;0.00;;;;;;;9.79;57.54;102107.66;5070101;28;20040;-81
2022/05/04 05:25:07;;;;;;;0.10;0.10;;;;;;;9.78;58.06;102109.44;5069930;28;20032;-81
2022/05/04 05:27:33;;;;;;;0.10;0.10;;;;;;;9.82;57.17;102102.38;5068815;28;20050;-82
2022/05/04 05:29:59;;;;;;;0.10;0.10;;;;;;;9.85;57.17;102097.09;5070630;28;20029;-83
2022/05/04 05:32:25;;;;;;;0.03;0.03;;;;;;;9.90;57.49;102111.22;5074485;22;20099;-84
2022/05/04 05:34:51;;;;;;;0.10;0.10;;;;;;;9.96;58.23;102105.09;5035078;28;20486;-85
2022/05/04 05:37:20;;;;;;;0.10;0.10;;;;;;;10.02;57.45;102105.09;5034917;28;20037;-84
2022/05/04 05:39:46;;;;;;;0.10;0.10;;;;;;;10.08;58.07;102109.50;5038223;28;20039;-85
2022/05/04 05:42:13;;;;;;;0.00;0.00;;;;;;;10.12;57.05;102101.59;5036529;28;20040;-85
2022/05/04 05:44:39;;;;;;;0.10;0.10;;;;;;;10.21;57.38;102106.00;5025511;28;20401;-85
2022/05/04 05:47:05;;;;;;;0.05;0.05;;;;;;;10.26;57.59;102098.09;5024325;28;20456;-84
2022/05/04 05:49:32;;;;;;;0.10;0.10;;;;;;;10.32;57.59;102101.63;5025044;28;20034;-84
2022/05/04 05:51:58;;;;;;;0.10;0.10;;;;;;;10.38;58.32;102102.53;5029340;28;20029;-84
2022/05/04 05:54:24;;;;;;;0.00;0.00;;;;;;;10.46;57.37;102106.09;5027134;28;20062;-83
2022/05/04 05:56:51;;;;;;;0.10;0.10;;;;;;;10.51;57.15;102106.97;5021010;28;20088;-85
2022/05/04 05:59:17;;;;;;;0.10;0.10;;;;;;;10.58;57.56;102105.19;5030086;28;20044;-85
2022/05/04 06:01:43;;;;;;;0.10;0.10;;;;;;;10.60;57.46;102101.66;5016669;28;20042;-85
2022/05/04 06:04:10;;;;;;;0.05;0.05;;;;;;;10.68;56.64;102115.81;5015422;28;20026;-85
2022/05/04 06:06:36;;;;;;;0.00;0.00;;;;;;;10.67;55.73;102107.84;5030532;28;20521;-84
2022/05/04 06:09:03;;;;;;;0.10;0.10;;;;;;;10.73;55.17;102114.91;5028469;28;20112;-83
2022/05/04 06:11:31;;;;;;;0.10;0.10;;;;;;;10.80;55.12;102111.38;5021604;28;20040;-85
2022/05/04 06:13:57;;;;;;;0.10;0.10;;;;;;;10.83;54.96;102114.03;5032844;28;20406;-85
2022/05/04 06:16:23;;;;;;;0.10;0.10;;;;;;;10.90;54.71;102102.53;5026852;28;20066;-84
2022/05/04 06:18:49;;;;;;;0.10;0.10;;;;;;;10.92;54.36;102100.75;5020871;28;20785;-84
2022/05/04 06:21:16;;;;;;;0.10;0.10;;;;;;;10.98;54.29;102106.06;5021416;28;20034;-85
2022/05/04 06:23:42;;;;;;;0.00;0.00;;;;;;;11.04;54.06;102106.94;5027953;28;20112;-84
2022/05/04 06:26:08;;;;;;;0.00;0.00;;;;;;;11.06;53.35;102115.78;5028202;28;20056;-85
2022/05/04 06:28:34;;;;;;;0.10;0.10;;;;;;;11.12;53.76;102110.47;5029973;28;20036;-85
2022/05/04 06:34:17;;;;;;;0.10;0.10;;;;;;;11.23;53.63;102108.66;5030526;28;20034;-84
2022/05/04 06:36:33;;;;;;;0.10;0.10;;;;;;;11.27;53.37;102114.84;5029134;28;20125;-84
2022/05/04 06:38:59;;;;;;;0.30;0.30;;;;;;;11.35;53.74;102120.13;5026479;28;20485;-84
2022/05/04 06:41:25;;;;;;;0.00;0.00;;;;;;;11.38;53.14;102118.34;5019204;28;20029;-83
2022/05/04 06:43:52;;;;;;;0.10;0.10;;;;;;;11.46;53.00;102118.31;5028937;28;20045;-84
2022/05/04 06:46:18;;;;;;;0.10;0.10;;;;;;;11.52;52.76;102115.66;5028874;28;20030;-83
2022/05/04 06:48:45;;;;;;;0.13;0.13;;;;;;;11.54;53.20;102108.59;5030772;28;20090;-85
2022/05/04 06:51:12;;;;;;;0.10;0.10;;;;;;;11.59;53.21;102114.75;5032768;28;20033;-83
2022/05/04 06:53:38;;;;;;;0.20;0.20;;;;;;;11.60;53.14;102111.22;5027492;28;20044;-85
2022/05/04 06:56:04;;;;;;;0.00;0.00;;;;;;;11.63;52.77;102119.16;5032437;28;20524;-84
2022/05/04 06:58:30;;;;;;;2.83;1.35;;;;;;;11.69;52.40;102122.66;5027704;28;20089;-83
2022/05/04 07:00:56;;;;;;;0.10;0.10;;;;;;;11.72;52.23;102118.22;5028055;28;20113;-84
2022/05/04 07:03:22;;;;;;;0.10;0.10;;;;;;;11.79;52.36;102116.44;5023122;28;20336;-84
2022/05/04 07:05:49;;;;;;;0.05;0.05;;;;;;;11.84;52.07;102121.72;5016462;28;20034;-82
2022/05/04 07:08:15;;;;;;;0.17;0.17;;;;;;;11.86;51.97;102126.13;5021238;28;20038;-85
2022/05/04 07:10:41;;;;;;;0.10;0.10;;;;;;;11.94;52.19;102121.66;5019762;28;20060;-83
2022/05/04 07:13:07;;;;;;;0.00;0.00;;;;;;;12.02;51.93;102123.44;5018248;28;20067;-84
2022/05/04 07:15:34;;;;;;;0.20;0.20;;;;;;;12.08;51.09;102118.97;5025729;28;20026;-84
2022/05/04 07:18:00;;;;;;;0.10;0.10;;;;;;;12.13;50.80;102124.25;5024730;28;20040;-84
2022/05/04 07:20:26;;;;;;;0.10;0.10;;;;;;;12.16;50.50;102123.34;5029184;28;20030;-83
2022/05/04 07:22:52;;;;;;;0.10;0.10;;;;;;;12.21;50.96;102125.09;5021182;28;20033;-84
2022/05/04 07:25:18;;;;;;;0.10;0.10;;;;;;;12.28;51.08;102118.84;5034592;28;20091;-83
2022/05/04 07:27:44;;;;;;;0.00;0.00;;;;;;;12.36;51.17;102115.25;5042387;28;20037;-85
2022/05/04 07:30:11;;;;;;;0.00;0.00;;;;;;;12.49;51.04;102119.59;5044267;28;20056;-84
2022/05/04 07:32:37;;;;;;;0.00;0.00;;;;;;;12.58;50.56;102116.84;5039877;28;20042;-84
2022/05/04 07:35:05;;;;;;;0.00;0.00;;;;;;;12.67;50.02;102112.34;5053572;28;20017;-84
2022/05/04 07:37:31;;;;;;;0.30;0.22;;;;;;;12.83;50.00;102118.44;5046654;28;20033;-82
2022/05/04 07:42:44;;;;;;;0.00;0.00;;;;;;;13.02;48.96;102103.16;5038671;28;20072;-78
2022/05/04 07:45:12;;;;;;;0.08;0.08;;;;;;;13.12;48.50;102104.81;5024773;28;20030;-78
2022/05/04 07:47:39;;;;;;;0.10;0.10;;;;;;;13.18;48.81;102110.09;5022860;28;20076;-80
2022/05/04 07:50:08;;;;;;;0.45;0.45;;;;;;;13.30;48.78;102108.22;5028724;28;20048;-79
2022/05/04 07:52:35;;;;;;;0.00;0.00;;;;;;;13.33;47.93;102103.72;5031053;28;20034;-80
2022/05/04 07:55:02;;;;;;;0.10;0.10;;;;;;;13.49;48.11;102104.47;5025878;28;20374;-79
2022/05/04 07:57:29;;;;;;;0.10;0.10;;;;;;;13.59;47.82;102106.13;5026654;28;20094;-80
2022/05/04 08:05:33;;;;;;;0.10;0.10;;;;;;;13.85;47.43;102110.22;5018990;28;20051;-79
2022/05/04 08:07:59;;;;;;;0.20;0.20;;;;;;;13.96;47.50;102103.88;5019124;28;20040;-80
2022/05/04 08:10:25;;;;;;;0.20;0.20;;;;;;;13.98;46.90;102107.38;5023159;28;20025;-80
2022/05/04 08:12:52;;;;;;;0.32;0.32;;;;;;;14.10;47.25;102115.22;5037358;28;20416;-78
2022/05/04 08:15:18;;;;;;;0.20;0.20;;;;;;;14.18;46.16;102116.00;5039001;28;20030;-79
2022/05/04 08:17:44;;;;;;;0.00;0.00;;;;;;;14.24;46.33;102117.66;5042397;28;20033;-79
2022/05/04 08:20:11;;;;;;;0.00;0.00;;;;;;;14.28;46.26;102110.50;5042075;28;20662;-79
2022/05/04 08:22:37;;;;;;;0.20;0.20;;;;;;;14.27;47.18;102116.75;5040314;28;20044;-78
2022/05/04 08:25:04;;;;;;;0.10;0.10;;;;;;;14.34;46.72;102113.06;5041228;28;20045;-79
2022/05/04 08:27:32;;;;;;;0.10;0.10;;;;;;;14.38;45.89;102112.13;5041048;28;20056;-79
2022/05/04 08:29:59;;;;;;;3.90;1.15;;;;;;;14.46;44.60;102112.88;5036433;28;20044;-79
2022/05/04 08:32:29;;;;;;;0.10;0.10;;;;;;;14.57;45.98;102108.25;5034836;28;20040;-79
2022/05/04 08:34:57;;;;;;;0.00;0.00;;;;;;;14.56;45.36;102106.50;5039092;28;20029;-79
2022/05/04 08:37:23;;;;;;;0.22;0.22;;;;;;;14.55;44.34;102104.75;5039472;28;20044;-79
2022/05/04 08:39:49;;;;;;;0.32;0.30;;;;;;;14.57;44.66;102108.25;5038488;28;20021;-80
2022/05/04 08:42:16;;;;;;;0.10;0.10;;;;;;;14.61;45.29;102105.56;5038148;28;20029;-79
2022/05/04 08:44:47;;;;;;;0.00;0.00;;;;;;;14.60;45.77;102115.31;5038455;28;20029;-79
2022/05/04 08:47:17;;;;;;;0.00;0.00;;;;;;;14.64;45.61;102118.81;5039505;28;20045;-79
2022/05/04 08:49:46;;;;;;;0.10;0.10;;;;;;;14.63;46.28;102111.72;5036140;28;20041;-80
2022/05/04 08:52:13;;;;;;;0.10;0.10;;;;;;;14.69;45.14;102111.66;5037643;28;20040;-79
2022/05/04 08:54:40;;;;;;;0.55;0.55;;;;;;;14.73;45.36;102113.38;5037610;28;20728;-79
2022/05/04 08:57:07;;;;;;;0.00;0.00;;;;;;;14.80;45.17;102104.34;5036838;28;20075;-79
2022/05/04 08:59:34;;;;;;;0.35;0.35;;;;;;;14.88;45.39;102107.78;5037813;28;20026;-79
2022/05/04 09:02:00;;;;;;;0.10;0.10;;;;;;;14.99;45.45;102104.00;5042396;28;20123;-79
2022/05/04 09:04:26;;;;;;;0.10;0.10;;;;;;;15.10;44.34;102110.03;5041532;28;20025;-79
2022/05/04 09:06:52;;;;;;;0.28;0.28;;;;;;;15.18;44.44;102102.78;5040657;28;20037;-79
2022/05/04 09:09:18;;;;;;;0.55;0.55;;;;;;;15.31;44.95;102107.88;5045051;28;20079;-79
2022/05/04 09:11:46;;;;;;;0.10;0.10;;;;;;;15.40;45.53;102110.34;5042346;28;20083;-78
2022/05/04 09:14:20;;;;;;;0.00;0.00;;;;;;;15.51;43.83;102103.03;5043709;28;20060;-80
2022/05/04 09:16:47;;;;;;;0.22;0.22;;;;;;;15.58;44.03;102102.91;5040539;28;20029;-78
2022/05/04 09:19:15;;;;;;;0.10;0.10;;;;;;;15.63;44.39;102107.22;5031503;28;20032;-80
2022/05/04 09:21:42;;;;;;;0.40;0.40;;;;;;;15.64;42.41;102106.31;5032267;28;20041;-80
2022/05/04 09:24:09;;;;;;;0.00;0.00;;;;;;;15.72;42.32;102094.59;5032012;28;20049;-81
2022/05/04 09:26:43;;;;;;;0.15;0.15;;;;;;;15.92;43.36;102080.81;5020939;28;20053;-81
2022/05/04 09:29:12;;;;;;;0.00;0.00;;;;;;;16.05;43.81;102076.06;5028378;28;20148;-81
2022/05/04 09:31:41;;;;;;;0.10;0.10;;;;;;;16.16;43.66;102080.25;5030591;28;20030;-81
2022/05/04 09:34:09;;;;;;;4.57;0.45;;;;;;;16.22;42.82;102079.22;5023766;28;20032;-81
2022/05/04 09:45:11;;;;;;;1.45;1.38;;;;;;;16.26;42.50;102075.56;4998445;28;20107;-76
2022/05/04 09:47:39;;;;;;;0.00;0.00;;;;;;;16.31;40.81;102072.75;4996527;28;20117;-77
2022/05/04 09:50:08;;;;;;;0.30;0.30;;;;;;;16.36;42.03;102068.16;5000393;28;20044;-77
2022/05/04 09:55:22;;;;;;;0.00;0.00;;;;;;;16.43;42.53;102072.47;5055369;28;20403;-78
2022/05/04 09:57:50;;;;;;;0.00;0.00;;;;;;;16.51;41.88;102066.94;5048718;28;20025;-79
2022/05/04 10:00:19;;;;;;;0.10;0.10;;;;;;;16.65;42.23;102071.94;5046706;28;20030;-79
2022/05/04 10:02:46;;;;;;;1.25;1.15;;;;;;;16.70;42.38;102074.47;5051604;28;20036;-78
2022/05/04 10:05:13;;;;;;;0.32;0.25;;;;;;;16.89;41.89;102065.03;5048753;28;20032;-78
2022/05/04 10:07:42;;;;;;;0.75;0.75;;;;;;;17.01;41.51;102069.22;5044428;28;20037;-78
2022/05/04 10:10:10;;;;;;;0.08;0.08;;;;;;;17.06;41.37;102072.66;5042640;28;20065;-78
2022/05/04 10:12:39;;;;;;;0.20;0.20;;;;;;;17.13;41.73;102063.53;5039786;28;20025;-78
2022/05/04 10:15:10;;;;;;;3.10;0.70;;;;;;;17.16;40.43;102069.72;5044061;28;20036;-78
2022/05/04 10:17:42;;;;;;;0.55;0.55;;;;;;;17.21;41.05;102071.34;5045945;28;20040;-79
2022/05/04 10:20:15;;;;;;;1.83;1.33;;;;;;;17.25;40.70;102061.44;5042172;28;20060;-78
2022/05/04 10:23:03;;;;;;;6.55;1.08;;;;;;;17.19;41.05;102075.00;5041908;28;20034;-80
2022/05/04 10:25:34;;;;;;;0.15;0.15;;;;;;;17.19;41.06;102072.31;5041987;28;20065;-78
2022/05/04 10:28:10;;;;;;;2.20;1.30;;;;;;;17.23;39.76;102063.25;5036384;28;20068;-78
2022/05/04 10:30:46;;;;;;;0.00;0.00;;;;;;;17.27;40.40;102064.91;5027969;28;20400;-78
2022/05/04 10:33:14;;;;;;;0.00;0.00;;;;;;;17.26;39.54;102057.84;5032679;28;20017;-77
2022/05/04 10:35:42;;;;;;;0.20;0.20;;;;;;;17.33;39.50;102058.53;5038924;28;20092;-78
2022/05/04 10:41:06;;;;;;;0.00;0.00;;;;;;;17.30;40.94;102052.31;5101321;27;1179844;-78
2022/05/04 10:46:18;;;;;;;0.20;0.20;;;;;;;17.27;40.42;102054.19;5113096;27;20387;-77
2022/05/04 10:54:11;;;;;;;0.00;0.00;;;;;;;17.26;41.09;102057.84;5066392;28;20409;-80
2022/05/04 10:56:42;;;;;;;0.10;0.10;;;;;;;17.50;40.97;102056.22;5051079;28;20056;-78
2022/05/04 10:59:09;;;;;;;0.00;0.00;;;;;;;17.57;41.31;102051.53;5051916;28;20040;-79
2022/05/04 11:01:37;;;;;;;0.00;0.00;;;;;;;17.60;41.04;102052.34;5049958;28;20035;-79
2022/05/04 11:04:17;;;;;;;0.00;0.00;;;;;;;17.57;40.00;102052.44;5054502;28;20116;-79
2022/05/04 11:09:39;;;;;;;0.10;0.10;;;;;;;17.91;40.40;102062.13;5094282;27;20409;-80
2022/05/04 11:12:07;;;;;;;0.00;0.00;;;;;;;17.97;40.06;102065.56;5075489;28;20024;-79
2022/05/04 11:14:34;;;;;;;0.40;0.40;;;;;;;18.02;39.91;102053.78;5072256;28;20056;-77
2022/05/04 11:17:02;;;;;;;0.00;0.00;;;;;;;18.13;39.55;102052.53;5072153;28;20579;-78
2022/05/04 11:19:32;;;;;;;0.13;0.10;;;;;;;18.17;39.08;102055.09;5064403;28;20041;-77
2022/05/04 11:21:59;;;;;;;0.20;0.20;;;;;;;18.26;38.43;102052.09;5066730;28;20481;-78
2022/05/04 11:24:27;;;;;;;0.20;0.17;;;;;;;18.36;38.35;102051.78;5078694;28;20032;-78
2022/05/04 11:26:55;;;;;;;0.73;0.40;;;;;;;18.57;38.53;102045.69;5079085;28;20048;-78
2022/05/04 11:29:24;;;;;;;0.40;0.40;;;;;;;18.81;38.34;102039.53;5082199;28;20025;-77
2022/05/04 11:34:32;;;;;;;0.20;0.20;;;;;;;19.22;38.09;102031.78;5044556;22;20143;-80
2022/05/04 11:37:03;;;;;;;0.00;0.00;;;;;;;19.34;36.99;102030.44;5068120;28;20040;-82
2022/05/04 11:39:30;;;;;;;0.30;0.30;;;;;;;19.30;36.60;102024.31;5066272;28;20055;-80
2022/05/04 11:41:59;;;;;;;0.10;0.10;;;;;;;19.22;36.84;102029.09;5069715;28;20032;-82
2022/05/04 11:44:27;;;;;;;0.05;0.05;;;;;;;19.19;35.10;102013.06;5069860;28;20623;-82
2022/05/04 11:46:55;;;;;;;0.10;0.10;;;;;;;19.31;37.38;102020.69;5069753;28;20082;-80
2022/05/04 11:49:23;;;;;;;0.10;0.10;;;;;;;19.54;37.69;102027.00;5068456;28;20086;-81
2022/05/04 11:51:54;;;;;;;0.52;0.52;;;;;;;19.65;36.51;102019.38;5068633;28;20036;-81
2022/05/04 11:54:21;;;;;;;0.40;0.40;;;;;;;19.79;37.38;102015.25;5069465;28;20039;-81
2022/05/04 11:56:48;;;;;;;0.00;0.00;;;;;;;20.08;36.70;102010.56;5065655;28;20063;-81
2022/05/04 11:59:14;;;;;;;0.00;0.00;;;;;;;20.32;35.47;102008.63;5069285;28;20048;-81
2022/05/04 12:01:41;;;;;;;0.00;0.00;;;;;;;20.49;36.26;102000.69;5068846;28;20036;-81
2022/05/04 12:04:09;;;;;;;0.15;0.15;;;;;;;20.68;36.62;102003.44;5069983;28;20404;-81
2022/05/04 12:06:37;;;;;;;0.10;0.10;;;;;;;20.87;35.89;102001.81;5071576;28;20035;-81
2022/05/04 12:09:04;;;;;;;0.10;0.10;;;;;;;21.04;33.77;101999.22;5068407;28;20311;-82
2022/05/04 12:11:32;;;;;;;0.00;0.00;;;;;;;21.17;35.17;102003.09;5065929;28;20055;-80
2022/05/04 12:13:59;;;;;;;0.30;0.30;;;;;;;21.25;35.35;102000.03;5065700;28;20543;-79